Aegean Pride — ELXK8 — position and weather

sailwx.info

Track history (hours):
 
Tides and Currents Weather Stations Pressure Air Temp Water Temp Dewpoint Dewpoint Depression Visibility Wind Speed Wind Dir Waves Ship Positions

Aegean Pride

Last reported at 2015-Feb-28 10:07 UTC. Time now 2015-Mar-30 10:40 UTC.
Position N 02°22' E 101°46'.
Warning: this ship's position is 30 days out of date.

; draft 8.2 m.

Type: Tanker. MMSI: 636011186.

Date/timePositionNaut miles runAvg speedWind from/ knotsBaromVisibWave heightAir tempDewpointWater temp
2015-Feb-28 10:07N 02°22' E 101°46'712.4
2015-Feb-28 09:33N 02°17' E 101°52'1612.7
2015-Feb-28 08:19N 02°07' E 102°04'1013.2
2015-Feb-28 07:32N 02°01' E 102°12'1313.1
2015-Feb-28 06:32N 01°54' E 102°23'1313.4
2015-Feb-28 05:32N 01°48' E 102°35'7213.4
2015-Feb-28 00:10N 01°12' E 103°37'6 3.2
2015-Feb-27 22:24N 01°10' E 103°42'0 0.0
2015-Feb-27 18:24N 01°10' E 103°42'  
Track history (hours):
 
Tides and Currents Weather Stations Pressure Air Temp Water Temp Dewpoint Dewpoint Depression Visibility Wind Speed Wind Dir Waves Ship Positions

Aegean Pride

Last reported at 2015-Feb-28 10:07 UTC. Time now 2015-Mar-30 10:40 UTC.
Position N 02°22' E 101°46'.
Warning: this ship's position is 30 days out of date.

; draft 8.2 m.

Type: Tanker. MMSI: 636011186.

Date/timePositionNaut miles runAvg speedWind from/ knotsBaromVisibWave heightAir tempDewpointWater temp
2015-Feb-28 10:07N 02°22' E 101°46'712.4
2015-Feb-28 09:33N 02°17' E 101°52'1612.7
2015-Feb-28 08:19N 02°07' E 102°04'1013.2
2015-Feb-28 07:32N 02°01' E 102°12'1313.1
2015-Feb-28 06:32N 01°54' E 102°23'1313.4
2015-Feb-28 05:32N 01°48' E 102°35'7213.4
2015-Feb-28 00:10N 01°12' E 103°37'6 3.2
2015-Feb-27 22:24N 01°10' E 103°42'0 0.0
2015-Feb-27 18:24N 01°10' E 103°42'  

Dump ship's entire track history